createdAt,value
2022-10-07T00:00:59.638Z,8.30
2022-10-07T00:03:28.112Z,8.30
2022-10-07T00:06:07.046Z,8.30
2022-10-07T00:08:36.810Z,8.30
2022-10-07T00:11:08.103Z,8.30
2022-10-07T00:13:36.718Z,8.30
2022-10-07T00:16:08.955Z,8.30
2022-10-07T00:18:37.193Z,8.30
2022-10-07T00:21:06.886Z,8.20
2022-10-07T00:23:34.426Z,8.30
2022-10-07T00:26:03.671Z,8.30
2022-10-07T00:28:30.736Z,8.30
2022-10-07T00:31:02.687Z,8.20
2022-10-07T00:33:35.112Z,8.30
2022-10-07T00:36:05.896Z,8.20
2022-10-07T00:38:32.469Z,8.10
2022-10-07T00:40:59.071Z,8.10
2022-10-07T00:43:29.999Z,8.00
2022-10-07T00:46:12.604Z,8.10
2022-10-07T00:48:40.061Z,8.00
2022-10-07T00:51:08.619Z,8.00
2022-10-07T00:53:38.882Z,8.00
2022-10-07T00:56:07.551Z,8.00
2022-10-07T00:58:37.090Z,8.00
2022-10-07T01:01:04.419Z,8.00
2022-10-07T01:03:31.366Z,8.00
2022-10-07T01:05:57.976Z,7.90
2022-10-07T01:08:25.046Z,7.90
2022-10-07T01:10:54.389Z,7.90
2022-10-07T01:13:34.605Z,7.90
2022-10-07T01:16:21.639Z,7.90
2022-10-07T01:19:05.879Z,7.90
2022-10-07T01:21:44.598Z,7.90
2022-10-07T01:24:22.512Z,7.90
2022-10-07T01:26:52.509Z,7.80
2022-10-07T01:29:25.926Z,7.70
2022-10-07T01:32:24.293Z,7.70
2022-10-07T01:34:54.111Z,7.70
2022-10-07T01:37:22.767Z,7.60
2022-10-07T01:39:53.516Z,7.60
2022-10-07T01:42:21.228Z,7.70
2022-10-07T01:44:52.279Z,7.60
2022-10-07T01:47:18.976Z,7.60
2022-10-07T01:49:45.574Z,7.60
2022-10-07T01:52:42.377Z,7.60
2022-10-07T01:55:21.183Z,7.50
2022-10-07T01:58:25.120Z,7.50
2022-10-07T02:01:06.457Z,7.50
2022-10-07T02:04:03.878Z,7.50
2022-10-07T02:06:37.960Z,7.50
2022-10-07T02:09:22.359Z,7.40
2022-10-07T02:11:57.145Z,7.40
2022-10-07T02:14:31.367Z,7.50
2022-10-07T02:17:05.367Z,7.40
2022-10-07T02:19:36.216Z,7.40
2022-10-07T02:22:05.594Z,7.30
2022-10-07T02:24:35.621Z,7.30
2022-10-07T02:27:08.847Z,7.30
2022-10-07T02:29:38.830Z,7.30
2022-10-07T02:32:10.487Z,7.30
2022-10-07T02:34:38.428Z,7.30
2022-10-07T02:37:11.342Z,7.30
2022-10-07T02:39:38.096Z,7.30
2022-10-07T02:42:30.606Z,7.30
2022-10-07T02:45:02.210Z,7.30
2022-10-07T02:47:33.329Z,7.30
2022-10-07T02:50:04.566Z,7.30
2022-10-07T02:52:32.905Z,7.30
2022-10-07T02:55:06.752Z,7.30
2022-10-07T02:57:38.725Z,7.30
2022-10-07T03:00:10.905Z,7.20
2022-10-07T03:02:43.227Z,7.30
2022-10-07T03:05:13.176Z,7.20
2022-10-07T03:07:41.430Z,7.20
2022-10-07T03:10:09.531Z,7.20
2022-10-07T03:12:36.139Z,7.10
2022-10-07T03:15:02.924Z,7.20
2022-10-07T03:17:29.643Z,7.20
2022-10-07T03:19:56.269Z,7.10
2022-10-07T03:22:22.845Z,7.10
2022-10-07T03:24:49.600Z,7.10
2022-10-07T03:27:16.162Z,7.10
2022-10-07T03:29:42.855Z,7.10
2022-10-07T03:32:09.451Z,7.10
2022-10-07T03:34:36.052Z,7.10
2022-10-07T03:37:03.458Z,7.10
2022-10-07T03:39:30.067Z,7.10
2022-10-07T03:41:56.994Z,7.10
2022-10-07T03:44:23.803Z,7.10
2022-10-07T03:46:51.432Z,7.10
2022-10-07T03:49:19.937Z,7.10
2022-10-07T03:51:46.884Z,7.10
2022-10-07T03:54:13.555Z,7.10
2022-10-07T03:56:40.277Z,7.00
2022-10-07T03:59:07.004Z,7.00
2022-10-07T04:01:33.677Z,7.00
2022-10-07T04:04:00.906Z,7.00
2022-10-07T04:06:29.033Z,7.00
2022-10-07T04:08:55.871Z,7.00
2022-10-07T04:11:24.156Z,7.00
2022-10-07T04:13:51.963Z,7.00
2022-10-07T04:16:19.898Z,7.00
2022-10-07T04:18:47.264Z,7.00
2022-10-07T04:21:13.879Z,6.90
2022-10-07T04:23:41.413Z,6.90
2022-10-07T04:26:09.760Z,7.00
2022-10-07T04:28:37.083Z,7.00
2022-10-07T04:31:05.831Z,7.00
2022-10-07T04:33:32.554Z,7.10
2022-10-07T04:36:05.337Z,7.00
2022-10-07T04:38:32.621Z,7.00
2022-10-07T04:41:02.797Z,7.00
2022-10-07T04:43:33.833Z,7.00
2022-10-07T04:46:05.680Z,7.00
2022-10-07T04:48:32.858Z,7.00
2022-10-07T04:51:07.742Z,7.00
2022-10-07T04:53:36.334Z,7.00
2022-10-07T04:56:03.848Z,7.00
2022-10-07T04:58:31.599Z,7.00
2022-10-07T05:01:00.430Z,7.00
2022-10-07T05:03:28.891Z,7.00
2022-10-07T05:06:05.533Z,7.00
2022-10-07T05:08:33.041Z,7.00
2022-10-07T05:11:01.591Z,6.90
2022-10-07T05:13:29.174Z,7.00
2022-10-07T05:15:56.935Z,7.00
2022-10-07T05:18:26.289Z,6.90
2022-10-07T05:20:53.567Z,6.90
2022-10-07T05:23:27.121Z,7.00
2022-10-07T05:25:59.827Z,7.00
2022-10-07T05:28:27.114Z,6.90
2022-10-07T05:31:07.742Z,6.90
2022-10-07T05:33:35.390Z,6.90
2022-10-07T05:36:02.363Z,6.90
2022-10-07T05:38:29.299Z,6.90
2022-10-07T05:41:01.072Z,6.90
2022-10-07T05:43:29.852Z,6.90
2022-10-07T05:46:02.986Z,6.90
2022-10-07T05:48:34.239Z,6.90
2022-10-07T05:51:04.324Z,6.90
2022-10-07T05:53:30.986Z,6.90
2022-10-07T05:55:57.789Z,7.00
2022-10-07T05:58:24.571Z,6.90
2022-10-07T06:00:58.983Z,6.90
2022-10-07T06:03:29.114Z,6.90
2022-10-07T06:05:56.014Z,6.90
2022-10-07T06:08:23.427Z,7.00
2022-10-07T06:11:08.591Z,7.00
2022-10-07T06:13:35.896Z,7.00
2022-10-07T06:16:08.329Z,7.10
2022-10-07T06:18:38.199Z,7.10
2022-10-07T06:21:05.341Z,7.10
2022-10-07T06:23:32.989Z,7.20
2022-10-07T06:26:03.994Z,7.30
2022-10-07T06:28:37.255Z,7.40
2022-10-07T06:31:22.259Z,7.40
2022-10-07T06:33:50.077Z,7.40
2022-10-07T06:36:17.217Z,7.50
2022-10-07T06:38:48.389Z,7.50
2022-10-07T06:41:15.945Z,7.50
2022-10-07T06:43:42.975Z,7.60
2022-10-07T06:46:21.874Z,7.70
2022-10-07T06:48:48.755Z,7.80
2022-10-07T06:51:17.428Z,8.00
2022-10-07T06:53:44.752Z,8.30
2022-10-07T06:56:13.700Z,8.60
2022-10-07T06:58:40.477Z,8.80
2022-10-07T07:01:07.297Z,9.10
2022-10-07T07:03:33.992Z,9.30
2022-10-07T07:06:00.851Z,9.50
2022-10-07T07:08:29.241Z,9.60
2022-10-07T07:10:56.252Z,9.80
2022-10-07T07:13:22.867Z,10.00
2022-10-07T07:15:57.297Z,10.10
2022-10-07T07:18:24.785Z,10.20
2022-10-07T07:20:51.850Z,10.30
2022-10-07T07:23:19.043Z,10.40
2022-10-07T07:25:46.085Z,10.40
2022-10-07T07:28:15.200Z,10.60
2022-10-07T07:30:42.250Z,10.70
2022-10-07T07:33:09.288Z,10.90
2022-10-07T07:35:39.892Z,11.00
2022-10-07T07:38:06.640Z,11.20
2022-10-07T07:40:37.544Z,11.30
2022-10-07T07:43:05.152Z,11.30
2022-10-07T07:45:33.003Z,11.50
2022-10-07T07:48:00.169Z,11.60
2022-10-07T07:50:27.391Z,11.80
2022-10-07T07:52:57.334Z,11.90
2022-10-07T07:55:24.643Z,12.00
2022-10-07T07:57:51.290Z,12.10
2022-10-07T08:00:18.957Z,12.20
2022-10-07T08:02:45.861Z,12.40
2022-10-07T08:05:12.515Z,12.50
2022-10-07T08:07:39.882Z,12.60
2022-10-07T08:10:07.118Z,12.80
2022-10-07T08:12:33.924Z,12.80
2022-10-07T08:15:00.633Z,13.00
2022-10-07T08:17:27.250Z,13.20
2022-10-07T08:19:55.232Z,13.40
2022-10-07T08:22:22.030Z,13.50
2022-10-07T08:24:48.801Z,13.60
2022-10-07T08:27:15.416Z,13.70
2022-10-07T08:29:42.179Z,13.90
2022-10-07T08:32:08.822Z,14.00
2022-10-07T08:34:36.424Z,14.30
2022-10-07T08:37:03.718Z,14.40
2022-10-07T08:39:31.121Z,14.60
2022-10-07T08:42:15.093Z,14.60
2022-10-07T08:44:48.350Z,14.60
2022-10-07T08:47:41.663Z,14.70
2022-10-07T08:50:19.146Z,14.80
2022-10-07T08:52:54.203Z,15.00
2022-10-07T08:55:29.710Z,15.00
2022-10-07T08:58:21.795Z,15.20
2022-10-07T09:01:24.238Z,15.40
2022-10-07T09:04:17.022Z,15.60
2022-10-07T09:06:52.353Z,15.90
2022-10-07T09:09:27.625Z,16.10
2022-10-07T09:11:56.087Z,16.20
2022-10-07T09:14:33.342Z,16.30
2022-10-07T09:17:15.395Z,16.50
2022-10-07T09:19:48.754Z,16.60
2022-10-07T09:22:30.976Z,16.60
2022-10-07T09:25:11.904Z,16.90
2022-10-07T09:27:38.712Z,17.10
2022-10-07T09:30:07.225Z,17.30
2022-10-07T09:32:39.897Z,17.50
2022-10-07T09:35:06.854Z,17.50
2022-10-07T09:37:34.062Z,17.60
2022-10-07T09:41:02.199Z,17.50
2022-10-07T09:43:31.513Z,17.40
2022-10-07T09:46:00.814Z,17.80
2022-10-07T09:48:30.270Z,18.00
2022-10-07T09:51:16.637Z,17.70
2022-10-07T09:54:05.916Z,17.90
2022-10-07T09:56:32.544Z,18.40
2022-10-07T09:59:21.324Z,18.40
2022-10-07T10:02:10.688Z,18.50
2022-10-07T10:04:39.411Z,18.60
2022-10-07T10:07:27.008Z,18.60
2022-10-07T10:09:56.058Z,19.00
2022-10-07T10:12:24.584Z,19.40
2022-10-07T10:15:01.459Z,19.60
2022-10-07T10:17:37.424Z,19.50
2022-10-07T10:20:31.614Z,19.40
2022-10-07T10:23:00.363Z,19.30
2022-10-07T10:26:02.776Z,19.10
2022-10-07T10:28:35.639Z,19.20
2022-10-07T10:31:20.763Z,19.10
2022-10-07T10:34:30.067Z,19.80
2022-10-07T10:37:09.100Z,19.80
2022-10-07T10:39:57.427Z,19.80
2022-10-07T10:42:44.507Z,19.70
2022-10-07T10:45:48.820Z,19.40
2022-10-07T10:48:29.221Z,20.20
2022-10-07T10:51:14.708Z,20.00
2022-10-07T10:53:44.422Z,19.40
2022-10-07T10:56:47.626Z,19.00
2022-10-07T10:59:23.157Z,19.40
2022-10-07T11:02:07.843Z,19.60
2022-10-07T11:04:42.456Z,19.20
2022-10-07T11:07:30.274Z,19.40
2022-10-07T11:10:25.489Z,19.50
2022-10-07T11:13:02.290Z,20.30
2022-10-07T11:15:36.607Z,20.40
2022-10-07T11:18:08.438Z,20.60
2022-10-07T11:20:48.435Z,20.20
2022-10-07T11:23:24.908Z,19.70
2022-10-07T11:26:07.791Z,20.00
2022-10-07T11:28:39.944Z,19.70
2022-10-07T11:31:28.316Z,19.80
2022-10-07T11:34:17.283Z,20.10
2022-10-07T11:37:06.120Z,20.20
2022-10-07T11:39:36.773Z,20.60
2022-10-07T11:42:15.987Z,20.60
2022-10-07T11:45:03.118Z,20.40
2022-10-07T11:47:38.411Z,20.20
2022-10-07T11:50:19.732Z,20.50
2022-10-07T11:52:50.096Z,20.40
2022-10-07T11:55:33.387Z,19.90
2022-10-07T11:58:04.005Z,19.80
2022-10-07T12:00:34.245Z,19.50
2022-10-07T12:03:17.900Z,19.60
2022-10-07T12:05:50.661Z,19.70
2022-10-07T12:08:31.141Z,19.50
2022-10-07T12:11:13.154Z,19.60
2022-10-07T12:13:42.537Z,19.50
2022-10-07T12:16:24.348Z,19.50
2022-10-07T12:19:12.773Z,19.10
2022-10-07T12:22:00.461Z,19.70
2022-10-07T12:24:28.121Z,19.70
2022-10-07T12:27:06.042Z,19.20
2022-10-07T12:29:48.510Z,19.00
2022-10-07T12:32:42.426Z,18.40
2022-10-07T12:35:34.492Z,19.00
2022-10-07T12:38:16.631Z,18.60
2022-10-07T12:40:51.040Z,18.80
2022-10-07T12:43:34.479Z,18.50
2022-10-07T12:46:10.479Z,18.40
2022-10-07T12:48:43.510Z,18.20
2022-10-07T12:51:19.444Z,17.80
2022-10-07T12:53:47.929Z,17.70
2022-10-07T12:56:28.079Z,17.50
2022-10-07T12:59:47.770Z,17.60
2022-10-07T13:02:42.611Z,17.40
2022-10-07T13:05:47.358Z,17.50
2022-10-07T13:08:51.508Z,17.50
2022-10-07T13:11:55.266Z,17.50
2022-10-07T13:14:34.453Z,17.40
2022-10-07T13:17:16.053Z,17.40
2022-10-07T13:19:54.990Z,17.40
2022-10-07T13:22:22.451Z,17.40
2022-10-07T13:24:51.632Z,17.40
2022-10-07T13:27:30.032Z,17.40
2022-10-07T13:29:59.175Z,17.50
2022-10-07T13:32:31.093Z,17.40
2022-10-07T13:35:00.203Z,17.40
2022-10-07T13:37:30.840Z,17.50
2022-10-07T13:40:19.287Z,17.50
2022-10-07T13:42:46.362Z,17.40
2022-10-07T13:45:15.729Z,17.40
2022-10-07T13:47:45.446Z,17.40
2022-10-07T13:50:19.413Z,17.40
2022-10-07T13:52:48.635Z,17.30
2022-10-07T13:55:35.594Z,17.40
2022-10-07T13:58:04.405Z,17.20
2022-10-07T14:00:42.250Z,17.30
2022-10-07T14:03:16.564Z,17.30
2022-10-07T14:05:51.791Z,17.30
2022-10-07T14:08:23.579Z,17.40
2022-10-07T14:10:56.075Z,17.30
2022-10-07T14:13:23.099Z,17.30
2022-10-07T14:15:53.849Z,17.30
2022-10-07T14:18:20.883Z,17.30
2022-10-07T14:20:52.905Z,17.30
2022-10-07T14:23:26.157Z,17.20
2022-10-07T14:26:01.028Z,17.20
2022-10-07T14:28:30.286Z,17.20
2022-10-07T14:31:28.022Z,17.10
2022-10-07T14:34:37.047Z,17.10
2022-10-07T14:37:10.585Z,17.10
2022-10-07T14:39:38.949Z,17.10
2022-10-07T14:42:10.367Z,17.00
2022-10-07T14:44:37.332Z,16.90
2022-10-07T14:47:12.718Z,16.90
2022-10-07T14:49:42.186Z,16.80
2022-10-07T14:52:21.850Z,16.70
2022-10-07T14:54:49.033Z,16.70
2022-10-07T14:57:15.616Z,16.60
2022-10-07T14:59:42.359Z,16.60
2022-10-07T15:02:11.567Z,16.60
2022-10-07T15:04:38.582Z,16.60
2022-10-07T15:07:05.297Z,16.60
2022-10-07T15:09:31.980Z,16.70
2022-10-07T15:11:58.613Z,16.60
2022-10-07T15:14:25.231Z,16.60
2022-10-07T15:16:51.894Z,16.50
2022-10-07T15:19:19.170Z,16.60
2022-10-07T15:21:45.767Z,16.50
2022-10-07T15:24:12.829Z,16.50
2022-10-07T15:26:39.385Z,16.60
2022-10-07T15:29:07.878Z,16.60
2022-10-07T15:31:34.708Z,16.50
2022-10-07T15:34:01.371Z,16.50
2022-10-07T15:36:29.817Z,16.50
2022-10-07T15:39:01.928Z,16.50
2022-10-07T15:41:38.978Z,16.40
2022-10-07T15:44:15.672Z,16.30
2022-10-07T15:46:43.521Z,16.30
2022-10-07T15:49:10.221Z,16.20
2022-10-07T15:51:36.875Z,16.20
2022-10-07T15:54:05.787Z,16.20
2022-10-07T15:56:33.227Z,16.20
2022-10-07T15:59:01.325Z,16.10
2022-10-07T16:01:31.694Z,16.10
2022-10-07T16:04:00.360Z,16.10
2022-10-07T16:06:32.814Z,16.00
2022-10-07T16:09:00.054Z,16.00
2022-10-07T16:11:28.309Z,16.00
2022-10-07T16:13:55.054Z,15.90
2022-10-07T16:16:25.189Z,15.90
2022-10-07T16:18:53.628Z,15.80
2022-10-07T16:21:27.885Z,15.70
2022-10-07T16:24:02.664Z,15.70
2022-10-07T16:26:30.302Z,15.60
2022-10-07T16:29:18.188Z,15.50
2022-10-07T16:31:46.269Z,15.40
2022-10-07T16:34:14.936Z,15.40
2022-10-07T16:36:45.512Z,15.30
2022-10-07T16:39:12.638Z,15.20
2022-10-07T16:41:41.616Z,15.10
2022-10-07T16:44:09.031Z,15.00
2022-10-07T16:46:36.017Z,14.90
2022-10-07T16:49:08.388Z,14.80
2022-10-07T16:51:36.857Z,14.70
2022-10-07T16:54:12.776Z,14.70
2022-10-07T16:56:46.919Z,14.60
2022-10-07T16:59:23.603Z,14.50
2022-10-07T17:01:52.989Z,14.40
2022-10-07T17:04:19.947Z,14.30
2022-10-07T17:06:46.950Z,14.30
2022-10-07T17:09:14.177Z,14.20
2022-10-07T17:11:41.559Z,14.10
2022-10-07T17:14:16.887Z,14.10
2022-10-07T17:16:47.040Z,14.00
2022-10-07T17:19:17.467Z,13.90
2022-10-07T17:21:46.246Z,13.90
2022-10-07T17:24:13.204Z,13.80
2022-10-07T17:26:40.823Z,13.70
2022-10-07T17:29:09.897Z,13.70
2022-10-07T17:31:42.400Z,13.60
2022-10-07T17:34:11.215Z,13.60
2022-10-07T17:36:38.095Z,13.60
2022-10-07T17:39:05.223Z,13.50
2022-10-07T17:41:34.033Z,13.40
2022-10-07T17:44:02.855Z,13.40
2022-10-07T17:46:32.481Z,13.30
2022-10-07T17:49:00.026Z,13.20
2022-10-07T17:51:28.946Z,13.10
2022-10-07T17:53:57.583Z,13.10
2022-10-07T17:56:24.275Z,13.10
2022-10-07T17:58:51.011Z,13.10
2022-10-07T18:01:24.203Z,13.10
2022-10-07T18:03:53.532Z,13.10
2022-10-07T18:06:21.348Z,13.10
2022-10-07T18:08:48.088Z,13.20
2022-10-07T18:11:15.791Z,13.10
2022-10-07T18:14:01.583Z,13.20
2022-10-07T18:16:31.966Z,13.20
2022-10-07T18:18:58.867Z,13.20
2022-10-07T18:21:26.369Z,13.20
2022-10-07T18:23:58.088Z,13.10
2022-10-07T18:26:25.009Z,13.10
2022-10-07T18:28:51.848Z,13.10
2022-10-07T18:31:19.116Z,13.10
2022-10-07T18:33:46.324Z,13.10
2022-10-07T18:36:16.134Z,13.10
2022-10-07T18:38:43.519Z,13.00
2022-10-07T18:41:13.495Z,13.10
2022-10-07T18:43:41.486Z,13.00
2022-10-07T18:46:11.811Z,13.00
2022-10-07T18:48:41.939Z,13.00
2022-10-07T18:51:10.597Z,13.00
2022-10-07T18:53:39.126Z,12.90
2022-10-07T18:56:12.390Z,12.90
2022-10-07T18:58:41.980Z,13.00
2022-10-07T19:01:27.769Z,13.00
2022-10-07T19:04:01.182Z,13.00
2022-10-07T19:06:33.462Z,13.00
2022-10-07T19:09:02.606Z,13.00
2022-10-07T19:11:30.505Z,13.10
2022-10-07T19:13:59.139Z,13.10
2022-10-07T19:16:28.542Z,13.10
2022-10-07T19:18:57.667Z,13.10
2022-10-07T19:21:25.227Z,13.10
2022-10-07T19:23:54.856Z,13.10
2022-10-07T19:26:23.961Z,13.10
2022-10-07T19:28:52.674Z,13.10
2022-10-07T19:31:25.242Z,13.10
2022-10-07T19:33:56.698Z,13.10
2022-10-07T19:36:24.218Z,13.10
2022-10-07T19:38:53.182Z,13.10
2022-10-07T19:41:23.119Z,13.10
2022-10-07T19:43:50.628Z,13.10
2022-10-07T19:46:19.268Z,13.10
2022-10-07T19:48:46.266Z,13.10
2022-10-07T19:51:16.664Z,13.10
2022-10-07T19:53:47.046Z,13.10
2022-10-07T19:56:25.536Z,13.10
2022-10-07T19:58:57.622Z,13.10
2022-10-07T20:01:27.076Z,13.10
2022-10-07T20:04:17.485Z,13.10
2022-10-07T20:06:44.616Z,13.10
2022-10-07T20:09:14.551Z,13.10
2022-10-07T20:11:41.768Z,13.20
2022-10-07T20:14:09.894Z,13.20
2022-10-07T20:16:38.229Z,13.20
2022-10-07T20:19:07.727Z,13.20
2022-10-07T20:21:36.943Z,13.20
2022-10-07T20:24:04.834Z,13.20
2022-10-07T20:26:34.316Z,13.20
2022-10-07T20:29:02.697Z,13.10
2022-10-07T20:31:32.222Z,13.10
2022-10-07T20:34:00.138Z,13.10
2022-10-07T20:36:29.822Z,13.00
2022-10-07T20:39:16.682Z,13.00
2022-10-07T20:42:02.278Z,13.00
2022-10-07T20:44:29.552Z,12.90
2022-10-07T20:46:57.208Z,12.90
2022-10-07T20:49:28.324Z,12.90
2022-10-07T20:52:02.013Z,12.80
2022-10-07T20:54:30.152Z,12.80
2022-10-07T20:56:58.903Z,12.80
2022-10-07T20:59:30.143Z,12.80
2022-10-07T21:01:57.532Z,12.80
2022-10-07T21:04:26.955Z,12.80
2022-10-07T21:06:54.468Z,12.80
2022-10-07T21:09:21.124Z,12.80
2022-10-07T21:11:48.347Z,12.80
2022-10-07T21:14:17.127Z,12.70
2022-10-07T21:16:44.556Z,12.70
2022-10-07T21:19:11.201Z,12.80
2022-10-07T21:21:38.377Z,12.80
2022-10-07T21:24:07.070Z,12.80
2022-10-07T21:26:35.039Z,12.80
2022-10-07T21:29:03.557Z,12.80
2022-10-07T21:31:31.288Z,12.80
2022-10-07T21:33:59.397Z,12.80
2022-10-07T21:36:26.487Z,12.80
2022-10-07T21:38:58.562Z,12.80
2022-10-07T21:41:27.455Z,12.80
2022-10-07T21:43:56.067Z,12.80
2022-10-07T21:46:24.507Z,12.80
2022-10-07T21:48:52.071Z,12.80
2022-10-07T21:51:18.686Z,12.70
2022-10-07T21:53:52.427Z,12.70
2022-10-07T21:56:19.593Z,12.70
2022-10-07T21:58:47.052Z,12.60
2022-10-07T22:01:16.535Z,12.60
2022-10-07T22:03:44.027Z,12.50
2022-10-07T22:06:13.513Z,12.50
2022-10-07T22:08:41.990Z,12.50
2022-10-07T22:11:09.963Z,12.40
2022-10-07T22:13:55.073Z,12.40
2022-10-07T22:16:23.000Z,12.30
2022-10-07T22:18:51.775Z,12.30
2022-10-07T22:21:24.410Z,12.20
2022-10-07T22:23:59.515Z,12.10
2022-10-07T22:26:29.486Z,12.00
2022-10-07T22:28:57.178Z,12.00
2022-10-07T22:31:24.187Z,11.90
2022-10-07T22:33:56.403Z,11.80
2022-10-07T22:36:23.226Z,11.70
2022-10-07T22:38:50.249Z,11.80
2022-10-07T22:41:19.304Z,11.80
2022-10-07T22:43:47.317Z,11.80
2022-10-07T22:46:16.952Z,11.80
2022-10-07T22:48:44.323Z,11.80
2022-10-07T22:51:14.671Z,11.70
2022-10-07T22:53:44.013Z,11.70
2022-10-07T22:56:12.625Z,11.70
2022-10-07T22:58:41.252Z,11.70
2022-10-07T23:01:16.235Z,11.70
2022-10-07T23:03:46.181Z,11.60
2022-10-07T23:06:17.031Z,11.60
2022-10-07T23:08:44.431Z,11.70
2022-10-07T23:11:15.940Z,11.60
2022-10-07T23:13:42.648Z,11.70
2022-10-07T23:16:12.095Z,11.70
2022-10-07T23:18:43.106Z,11.80
2022-10-07T23:21:16.131Z,11.80
2022-10-07T23:23:46.814Z,11.80
2022-10-07T23:26:22.710Z,11.70
2022-10-07T23:28:53.730Z,11.60
2022-10-07T23:31:22.783Z,11.60
2022-10-07T23:33:51.804Z,11.50
2022-10-07T23:36:22.631Z,11.50
2022-10-07T23:38:50.503Z,11.50
2022-10-07T23:41:25.785Z,11.50
2022-10-07T23:43:56.579Z,11.50
2022-10-07T23:46:26.326Z,11.50
2022-10-07T23:48:54.117Z,11.50
2022-10-07T23:51:22.567Z,11.50
2022-10-07T23:53:50.019Z,11.40
2022-10-07T23:56:18.591Z,11.50
2022-10-07T23:58:45.272Z,11.50
